Time;durP1;ratioP1;P1;durP2;ratioP2;P2;SDS_P1;SDS_P2;PMS_P1;PMS_P2;Temp;Humidity;BMP_temperature;BMP_pressure;BME280_temperature;BME280_humidity;BME280_pressure;Samples;Min_cycle;Max_cycle;Signal;HPM_P1;HPM_P2
2021/10/13 00:01:51;;;;;;;5.28;2.80;;;9.20;99.90;;;;;;5093429;28;20063;-79
2021/10/13 00:04:17;;;;;;;5.90;2.75;;;9.30;99.90;;;;;;5091670;28;20024;-79
2021/10/13 00:06:43;;;;;;;4.05;2.60;;;9.20;99.90;;;;;;5091171;28;20051;-81
2021/10/13 00:09:09;;;;;;;3.97;2.58;;;9.10;99.90;;;;;;5092813;28;20082;-80
2021/10/13 00:11:34;;;;;;;5.18;2.22;;;9.00;99.90;;;;;;5092690;28;20465;-80
2021/10/13 00:14:01;;;;;;;5.28;2.40;;;9.10;99.90;;;;;;5093818;28;20027;-81
2021/10/13 00:16:30;;;;;;;4.47;2.80;;;9.00;99.90;;;;;;5093177;28;20028;-81
2021/10/13 00:18:55;;;;;;;4.10;2.38;;;9.00;99.90;;;;;;5092246;28;20032;-80
2021/10/13 00:21:21;;;;;;;3.60;2.50;;;8.90;99.90;;;;;;5092086;28;20577;-80
2021/10/13 00:23:47;;;;;;;6.30;2.70;;;8.90;99.90;;;;;;5093035;28;20016;-80
2021/10/13 00:26:12;;;;;;;6.72;3.15;;;8.90;99.90;;;;;;5092731;28;20084;-81
2021/10/13 00:28:38;;;;;;;4.28;2.90;;;8.70;99.90;;;;;;5091787;28;20056;-81
2021/10/13 00:31:03;;;;;;;3.85;2.80;;;8.60;99.90;;;;;;5092003;28;20125;-82
2021/10/13 00:33:29;;;;;;;5.35;2.85;;;8.60;99.90;;;;;;5094320;28;20024;-81
2021/10/13 00:35:55;;;;;;;4.93;2.20;;;8.60;99.90;;;;;;5097171;28;20032;-81
2021/10/13 00:38:20;;;;;;;5.05;2.22;;;8.60;99.90;;;;;;5095469;28;20056;-81
2021/10/13 00:40:46;;;;;;;4.60;2.90;;;8.60;99.90;;;;;;5095241;28;20059;-81
2021/10/13 00:43:12;;;;;;;3.13;2.42;;;8.70;99.90;;;;;;5095701;28;20027;-81
2021/10/13 00:45:37;;;;;;;3.90;2.50;;;8.60;99.80;;;;;;5111400;28;20023;-80
2021/10/13 00:48:03;;;;;;;3.78;2.50;;;8.60;99.80;;;;;;5115636;28;20035;-80
2021/10/13 00:50:29;;;;;;;2.58;2.20;;;8.60;99.60;;;;;;5115581;28;20032;-80
2021/10/13 00:52:55;;;;;;;3.70;2.45;;;8.60;99.50;;;;;;5110907;28;20469;-81
2021/10/13 00:55:21;;;;;;;5.10;2.28;;;8.40;99.50;;;;;;5096084;28;20055;-81
2021/10/13 00:57:49;;;;;;;3.08;1.90;;;8.40;99.70;;;;;;5128532;27;20044;-80
2021/10/13 01:00:16;;;;;;;4.75;2.47;;;8.20;99.90;;;;;;5094788;28;20469;-81
2021/10/13 01:02:54;;;;;;;3.95;2.20;;;8.30;99.90;;;;;;5094293;28;20488;-80
2021/10/13 01:05:32;;;;;;;3.25;2.30;;;8.20;99.90;;;;;;5095018;28;20024;-80
2021/10/13 01:08:12;;;;;;;2.75;2.10;;;8.20;99.90;;;;;;5094797;28;20168;-80
2021/10/13 01:10:52;;;;;;;5.05;2.58;;;8.20;99.90;;;;;;5095184;28;20084;-80
2021/10/13 01:13:23;;;;;;;4.53;2.28;;;8.20;99.90;;;;;;5095183;28;20031;-81
2021/10/13 01:15:56;;;;;;;3.95;2.40;;;8.10;99.90;;;;;;5094547;28;20032;-81
2021/10/13 01:18:34;;;;;;;4.30;2.65;;;8.00;99.90;;;;;;5094750;28;20081;-80
2021/10/13 01:21:14;;;;;;;3.25;2.50;;;7.90;99.90;;;;;;5095376;28;20138;-80
2021/10/13 01:23:52;;;;;;;4.88;2.40;;;7.90;99.90;;;;;;5094687;28;20028;-80
2021/10/13 01:26:20;;;;;;;4.40;2.38;;;7.90;99.90;;;;;;5083423;28;20028;-80
2021/10/13 01:28:49;;;;;;;6.93;3.22;;;7.80;99.90;;;;;;5107730;28;20033;-79
2021/10/13 01:31:22;;;;;;;3.88;2.63;;;7.80;99.90;;;;;;5074550;28;20025;-80
2021/10/13 01:33:57;;;;;;;3.63;2.53;;;7.70;99.90;;;;;;5074014;28;20367;-79
2021/10/13 01:36:29;;;;;;;4.70;2.95;;;7.70;99.90;;;;;;5083783;28;20131;-79
2021/10/13 01:38:57;;;;;;;5.05;2.88;;;7.60;99.90;;;;;;5094215;28;20036;-79
2021/10/13 01:41:25;;;;;;;6.47;2.95;;;7.60;99.90;;;;;;5094467;28;20477;-79
2021/10/13 01:43:53;;;;;;;3.47;2.70;;;7.70;99.90;;;;;;5094331;28;20046;-79
2021/10/13 01:46:23;;;;;;;5.45;2.67;;;7.70;99.90;;;;;;5093861;28;20048;-79
2021/10/13 01:48:51;;;;;;;4.78;2.63;;;7.70;99.90;;;;;;5094753;28;20032;-79
2021/10/13 01:51:18;;;;;;;4.57;2.83;;;7.60;99.90;;;;;;5094674;28;20043;-79
2021/10/13 01:53:45;;;;;;;5.50;2.70;;;7.50;99.90;;;;;;5093899;28;20536;-79
2021/10/13 01:56:14;;;;;;;4.57;2.67;;;7.40;99.90;;;;;;5094121;28;20027;-79
2021/10/13 01:58:41;;;;;;;5.90;2.63;;;7.40;99.90;;;;;;5095123;28;20050;-79
2021/10/13 02:01:10;;;;;;;3.72;2.63;;;7.50;99.90;;;;;;5094351;28;20028;-79
2021/10/13 02:03:38;;;;;;;7.82;3.53;;;7.40;99.90;;;;;;5093806;28;20028;-79
2021/10/13 02:06:05;;;;;;;4.53;2.63;;;7.50;99.90;;;;;;5095685;28;20138;-79
2021/10/13 02:08:34;;;;;;;4.38;2.63;;;7.40;99.90;;;;;;5095253;28;20099;-79
2021/10/13 02:11:03;;;;;;;3.70;2.78;;;7.50;99.90;;;;;;5094178;28;20100;-79
2021/10/13 02:13:34;;;;;;;5.82;2.65;;;7.50;99.90;;;;;;5094026;28;20123;-78
2021/10/13 02:16:01;;;;;;;5.20;3.20;;;7.50;99.90;;;;;;5094463;28;20028;-79
2021/10/13 02:18:29;;;;;;;7.03;3.20;;;7.50;99.90;;;;;;5093837;28;20134;-80
2021/10/13 02:20:56;;;;;;;4.47;2.90;;;7.50;99.90;;;;;;5094230;28;20430;-80
2021/10/13 02:23:28;;;;;;;5.85;3.05;;;7.50;99.90;;;;;;5094255;28;20031;-79
2021/10/13 02:25:54;;;;;;;6.90;2.75;;;7.40;99.70;;;;;;5095093;28;20405;-79
2021/10/13 02:28:37;;;;;;;4.63;2.83;;;7.30;99.80;;;;;;5094536;28;20040;-79
2021/10/13 02:31:03;;;;;;;5.22;3.10;;;7.30;99.90;;;;;;5095063;28;20024;-79
2021/10/13 02:33:29;;;;;;;6.95;3.53;;;7.20;99.90;;;;;;5093871;28;20115;-78
2021/10/13 02:35:55;;;;;;;6.35;2.60;;;7.20;99.90;;;;;;5093991;28;20031;-79
2021/10/13 02:38:21;;;;;;;7.15;3.10;;;7.10;99.90;;;;;;5093809;28;20423;-79
2021/10/13 02:40:47;;;;;;;4.43;2.97;;;7.10;99.90;;;;;;5094221;28;20024;-79
2021/10/13 02:43:12;;;;;;;4.00;2.75;;;7.10;99.90;;;;;;5093981;28;20031;-78
2021/10/13 02:45:43;;;;;;;6.38;2.67;;;7.10;99.90;;;;;;5094266;28;20022;-79
2021/10/13 02:48:22;;;;;;;6.22;3.38;;;7.10;99.90;;;;;;5094792;28;20028;-79
2021/10/13 02:51:10;;;;;;;4.95;2.55;;;7.20;99.90;;;;;;5093266;28;20024;-79
2021/10/13 02:53:47;;;;;;;4.75;2.80;;;7.00;99.70;;;;;;5093046;28;20028;-79
2021/10/13 02:56:22;;;;;;;4.97;2.80;;;7.10;99.80;;;;;;5093732;28;20031;-80
2021/10/13 02:59:21;;;;;;;6.57;2.67;;;7.00;99.70;;;;;;5092875;28;20036;-79
2021/10/13 03:01:47;;;;;;;4.03;2.25;;;6.90;99.80;;;;;;5077182;28;20036;-79
2021/10/13 03:04:17;;;;;;;4.38;2.42;;;6.90;99.80;;;;;;5099828;28;20119;-80
2021/10/13 03:06:53;;;;;;;4.47;2.65;;;6.90;99.90;;;;;;5113249;28;20059;-79
2021/10/13 03:09:21;;;;;;;4.13;2.33;;;6.80;99.90;;;;;;5113976;28;20027;-79
2021/10/13 03:11:50;;;;;;;4.57;2.30;;;6.80;99.90;;;;;;5112561;28;20019;-79
2021/10/13 03:14:22;;;;;;;3.05;2.20;;;6.80;99.90;;;;;;5093528;28;20024;-81
2021/10/13 03:16:49;;;;;;;6.13;2.30;;;6.80;99.90;;;;;;5093076;28;20032;-81
2021/10/13 03:19:17;;;;;;;3.10;2.30;;;6.80;99.90;;;;;;5093562;28;20072;-81
2021/10/13 03:21:43;;;;;;;3.40;2.30;;;6.80;99.90;;;;;;5093825;28;20377;-80
2021/10/13 03:24:09;;;;;;;4.38;2.45;;;6.80;99.80;;;;;;5093778;28;20024;-81
2021/10/13 03:26:34;;;;;;;3.70;2.17;;;6.80;99.80;;;;;;5092619;28;20043;-79
2021/10/13 03:29:01;;;;;;;3.20;2.13;;;6.80;99.60;;;;;;5116946;27;20025;-81
2021/10/13 03:31:27;;;;;;;3.97;2.55;;;6.80;99.50;;;;;;5072543;28;20021;-80
2021/10/13 03:33:53;;;;;;;3.60;2.47;;;6.80;99.40;;;;;;5091518;28;20044;-79
2021/10/13 03:36:18;;;;;;;5.77;2.37;;;6.80;99.40;;;;;;5093137;28;20081;-80
2021/10/13 03:38:44;;;;;;;3.85;2.10;;;6.70;99.30;;;;;;5092528;28;20040;-80
2021/10/13 03:41:10;;;;;;;5.73;2.23;;;6.70;99.30;;;;;;5093206;28;20028;-80
2021/10/13 03:43:45;;;;;;;2.77;1.93;;;6.50;99.50;;;;;;5093385;28;20086;-79
2021/10/13 03:46:19;;;;;;;3.53;2.60;;;6.60;99.60;;;;;;5092651;28;20062;-79
2021/10/13 03:48:49;;;;;;;2.73;2.10;;;6.70;99.30;;;;;;5092687;28;20523;-78
2021/10/13 03:51:14;;;;;;;5.47;1.77;;;6.50;99.40;;;;;;5093991;28;20115;-79
2021/10/13 03:53:40;;;;;;;2.97;2.00;;;6.50;99.60;;;;;;5093459;28;20103;-79
2021/10/13 03:56:06;;;;;;;3.42;2.22;;;6.60;99.60;;;;;;5093016;28;20055;-79
2021/10/13 03:58:31;;;;;;;2.92;2.00;;;6.60;99.50;;;;;;5092226;28;20044;-79
2021/10/13 04:00:57;;;;;;;5.43;2.50;;;6.60;99.40;;;;;;5093242;28;20036;-79
2021/10/13 04:03:22;;;;;;;3.73;2.40;;;6.50;99.60;;;;;;5092798;28;20028;-79
2021/10/13 04:05:48;;;;;;;4.07;2.50;;;6.50;99.50;;;;;;5092198;28;20469;-80
2021/10/13 04:08:13;;;;;;;3.03;2.07;;;6.50;99.40;;;;;;5094680;28;20032;-79
2021/10/13 04:10:39;;;;;;;5.10;2.27;;;6.50;99.40;;;;;;5095934;28;20028;-80
2021/10/13 04:13:05;;;;;;;4.10;2.50;;;6.50;99.40;;;;;;5096472;28;20024;-80
2021/10/13 04:15:30;;;;;;;6.30;2.37;;;6.40;99.60;;;;;;5095780;28;20114;-80
2021/10/13 04:17:56;;;;;;;4.37;2.37;;;6.50;99.80;;;;;;5095463;28;20024;-79
2021/10/13 04:20:22;;;;;;;4.07;2.33;;;6.50;99.90;;;;;;5096143;28;20052;-80
2021/10/13 04:22:47;;;;;;;5.77;2.50;;;6.60;99.90;;;;;;5127130;27;20059;-80
2021/10/13 04:25:13;;;;;;;2.90;2.10;;;6.50;99.80;;;;;;5076276;28;20028;-80
2021/10/13 04:27:39;;;;;;;3.60;2.37;;;6.50;99.90;;;;;;5124858;27;20028;-80
2021/10/13 04:30:06;;;;;;;4.17;2.23;;;6.50;99.90;;;;;;5096582;28;20031;-80
2021/10/13 04:32:32;;;;;;;4.70;2.23;;;6.40;99.90;;;;;;5097222;28;20024;-80
2021/10/13 04:34:58;;;;;;;2.40;1.90;;;6.50;99.90;;;;;;5095624;28;20023;-80
2021/10/13 04:37:23;;;;;;;3.00;1.90;;;6.50;99.90;;;;;;5097541;28;20380;-81
2021/10/13 04:39:49;;;;;;;4.00;2.10;;;6.60;99.90;;;;;;5094877;28;20040;-80
2021/10/13 04:42:15;;;;;;;3.23;2.10;;;6.50;99.90;;;;;;5095885;28;20039;-80
2021/10/13 04:44:40;;;;;;;4.00;2.40;;;6.60;99.90;;;;;;5096253;28;20033;-79
2021/10/13 04:47:07;;;;;;;4.50;2.00;;;6.60;99.90;;;;;;5095059;28;20051;-80
2021/10/13 04:49:33;;;;;;;5.07;2.53;;;6.60;99.90;;;;;;5075477;28;20032;-80
2021/10/13 04:51:59;;;;;;;6.40;4.07;;;6.50;99.90;;;;;;5075536;28;20032;-79
2021/10/13 04:54:24;;;;;;;10.33;4.33;;;6.40;99.90;;;;;;5128589;27;20024;-79
2021/10/13 04:56:50;;;;;;;5.13;3.50;;;6.40;99.90;;;;;;5096240;28;20055;-79
2021/10/13 04:59:16;;;;;;;6.50;3.70;;;6.30;99.90;;;;;;5109858;28;20066;-79
2021/10/13 05:01:41;;;;;;;7.40;3.67;;;6.30;99.90;;;;;;5116702;28;20103;-80
2021/10/13 05:04:07;;;;;;;6.60;3.37;;;6.40;99.90;;;;;;5129639;27;20025;-80
2021/10/13 05:06:32;;;;;;;5.93;3.30;;;6.40;99.90;;;;;;5095556;28;20028;-79
2021/10/13 05:08:58;;;;;;;5.37;3.50;;;6.40;99.90;;;;;;5095535;28;20473;-79
2021/10/13 05:11:24;;;;;;;6.47;3.03;;;6.50;99.90;;;;;;5094983;28;20103;-81
2021/10/13 05:13:49;;;;;;;5.93;3.73;;;6.50;99.90;;;;;;5092794;28;20059;-77
2021/10/13 05:16:15;;;;;;;6.77;3.77;;;6.70;99.90;;;;;;5096063;28;20036;-77
2021/10/13 05:18:41;;;;;;;5.80;3.53;;;6.80;99.90;;;;;;5098764;28;20028;-78
2021/10/13 05:21:06;;;;;;;5.13;3.07;;;6.80;99.90;;;;;;5114431;28;20024;-78
2021/10/13 05:23:32;;;;;;;8.57;3.50;;;6.80;99.90;;;;;;5104343;28;20464;-78
2021/10/13 05:25:58;;;;;;;14.37;5.03;;;6.90;99.90;;;;;;5094424;28;20107;-77
2021/10/13 05:28:24;;;;;;;11.63;6.10;;;6.90;99.90;;;;;;5105103;28;20035;-81
2021/10/13 05:30:49;;;;;;;10.75;5.40;;;6.90;99.90;;;;;;5100385;28;20028;-80
2021/10/13 05:33:15;;;;;;;7.97;4.33;;;7.00;99.90;;;;;;5102232;28;20032;-81
2021/10/13 05:35:40;;;;;;;8.35;4.63;;;7.10;99.90;;;;;;5095832;28;20511;-81
2021/10/13 05:38:06;;;;;;;6.83;4.23;;;7.10;99.90;;;;;;5101497;28;20035;-80
2021/10/13 05:40:32;;;;;;;7.13;3.90;;;7.10;99.90;;;;;;5115338;28;20051;-79
2021/10/13 05:42:57;;;;;;;9.50;4.05;;;7.20;99.90;;;;;;5104136;28;20187;-80
2021/10/13 05:45:23;;;;;;;8.10;4.30;;;7.20;99.90;;;;;;5094063;28;20020;-80
2021/10/13 05:47:49;;;;;;;7.85;4.15;;;7.20;99.90;;;;;;5092914;28;20472;-81
2021/10/13 05:50:14;;;;;;;12.43;4.65;;;7.30;99.90;;;;;;5094190;28;20067;-81
2021/10/13 05:52:40;;;;;;;8.52;4.60;;;7.30;99.90;;;;;;5093172;28;20024;-81
2021/10/13 05:55:06;;;;;;;8.30;4.97;;;7.40;99.90;;;;;;5095457;28;20118;-81
2021/10/13 05:57:32;;;;;;;8.65;4.28;;;7.40;99.90;;;;;;5092377;28;20147;-81
2021/10/13 05:59:59;;;;;;;11.63;4.75;;;7.40;99.90;;;;;;5094435;28;20274;-81
2021/10/13 06:02:25;;;;;;;8.52;4.20;;;7.30;99.90;;;;;;5092938;28;20028;-81
2021/10/13 06:04:51;;;;;;;9.27;3.85;;;7.30;99.90;;;;;;5093899;28;20347;-80
2021/10/13 06:07:17;;;;;;;6.28;3.53;;;7.20;99.90;;;;;;5094431;28;20024;-79
2021/10/13 06:09:42;;;;;;;7.57;4.35;;;7.30;99.90;;;;;;5098941;28;20024;-80
2021/10/13 06:12:08;;;;;;;7.18;3.78;;;7.40;99.90;;;;;;5110652;28;20140;-80
2021/10/13 06:14:34;;;;;;;10.60;4.60;;;7.40;99.90;;;;;;5126305;27;20032;-79
2021/10/13 06:17:00;;;;;;;13.30;4.10;;;7.50;99.90;;;;;;5126462;27;20034;-79
2021/10/13 06:19:26;;;;;;;6.90;4.20;;;7.50;99.90;;;;;;5092969;28;20043;-79
2021/10/13 06:21:51;;;;;;;10.57;4.72;;;7.50;99.90;;;;;;5106811;28;20028;-80
2021/10/13 06:24:17;;;;;;;9.13;4.80;;;7.50;99.90;;;;;;5106731;28;20034;-79
2021/10/13 06:26:42;;;;;;;11.40;6.68;;;7.50;99.90;;;;;;5094995;28;20032;-79
2021/10/13 06:29:09;;;;;;;15.25;7.80;;;7.60;99.90;;;;;;5103527;28;20028;-80
2021/10/13 06:31:35;;;;;;;11.27;5.85;;;7.60;99.90;;;;;;5092574;28;20040;-80
2021/10/13 06:34:01;;;;;;;15.80;6.90;;;7.60;99.90;;;;;;5092517;28;20037;-79
2021/10/13 06:36:27;;;;;;;14.13;6.50;;;7.60;99.90;;;;;;5106682;28;20122;-79
2021/10/13 06:38:52;;;;;;;7.45;5.18;;;7.70;99.90;;;;;;5094486;28;20393;-79
2021/10/13 06:41:18;;;;;;;11.65;5.50;;;7.70;99.90;;;;;;5092937;28;20053;-79
2021/10/13 06:43:44;;;;;;;13.82;7.97;;;7.80;99.90;;;;;;5091298;28;20020;-82
2021/10/13 06:46:09;;;;;;;11.00;6.60;;;7.80;99.90;;;;;;5143139;27;20026;-81
2021/10/13 06:48:35;;;;;;;13.77;5.47;;;7.80;99.90;;;;;;5111842;28;20058;-80
2021/10/13 06:51:02;;;;;;;11.75;5.30;;;7.90;99.90;;;;;;5113720;28;20027;-80
2021/10/13 06:53:28;;;;;;;12.60;5.50;;;8.00;99.90;;;;;;5109884;28;20016;-80
2021/10/13 06:55:55;;;;;;;11.02;4.65;;;8.00;99.90;;;;;;5095215;28;20030;-80
2021/10/13 06:58:21;;;;;;;14.68;5.70;;;8.10;99.90;;;;;;5105935;28;20082;-80
2021/10/13 07:00:47;;;;;;;12.65;4.88;;;8.20;99.90;;;;;;5126476;27;20032;-81
2021/10/13 07:03:12;;;;;;;10.52;4.93;;;8.20;99.90;;;;;;5093373;28;20024;-80
2021/10/13 07:05:38;;;;;;;11.23;4.65;;;8.20;99.90;;;;;;5126433;27;20032;-80
2021/10/13 07:08:04;;;;;;;7.03;4.05;;;8.30;99.90;;;;;;5091697;28;20058;-79
2021/10/13 07:10:30;;;;;;;10.50;4.50;;;8.30;99.90;;;;;;5125912;27;20024;-79
2021/10/13 07:12:56;;;;;;;8.80;4.35;;;8.30;99.90;;;;;;5125868;27;20028;-80
2021/10/13 07:15:21;;;;;;;14.32;4.82;;;8.40;99.90;;;;;;5093564;28;20031;-81
2021/10/13 07:17:48;;;;;;;9.43;4.22;;;8.50;99.90;;;;;;5092209;28;20381;-82
2021/10/13 07:20:13;;;;;;;9.52;4.65;;;8.60;99.90;;;;;;5110761;28;20031;-83
2021/10/13 07:22:39;;;;;;;15.35;4.70;;;8.60;99.90;;;;;;5096603;28;20095;-83
2021/10/13 07:25:07;;;;;;;10.50;4.82;;;8.60;99.90;;;;;;5091950;28;20024;-83
2021/10/13 07:27:33;;;;;;;10.48;4.75;;;8.60;99.90;;;;;;5126508;27;20033;-81
2021/10/13 07:30:01;;;;;;;9.25;4.88;;;8.70;99.90;;;;;;5125495;27;20122;-83
2021/10/13 07:32:30;;;;;;;9.82;4.80;;;8.70;99.90;;;;;;5090980;28;20032;-82
2021/10/13 07:34:56;;;;;;;9.60;4.95;;;8.70;99.90;;;;;;5090248;28;20021;-81
2021/10/13 07:37:21;;;;;;;8.90;4.57;;;8.80;99.90;;;;;;5097502;28;20083;-82
2021/10/13 07:39:48;;;;;;;8.90;4.68;;;8.70;99.90;;;;;;5111619;28;20036;-82
2021/10/13 07:42:15;;;;;;;5.88;3.70;;;8.80;99.90;;;;;;5094973;28;20468;-81
2021/10/13 07:44:42;;;;;;;9.38;4.22;;;8.80;99.90;;;;;;5095954;28;20040;-81
2021/10/13 07:47:09;;;;;;;7.43;4.18;;;8.80;99.90;;;;;;5106244;28;20028;-83
2021/10/13 07:49:35;;;;;;;8.60;4.75;;;8.90;99.90;;;;;;5097314;28;20028;-83
2021/10/13 07:52:01;;;;;;;10.00;4.50;;;9.00;99.90;;;;;;5105352;28;20030;-82
2021/10/13 07:54:27;;;;;;;9.07;4.15;;;9.00;99.90;;;;;;5099382;28;20024;-81
2021/10/13 07:56:52;;;;;;;6.82;3.63;;;9.10;99.90;;;;;;5097301;28;20047;-81
2021/10/13 07:59:18;;;;;;;7.93;3.72;;;9.10;99.90;;;;;;5131019;27;20497;-81
2021/10/13 08:01:44;;;;;;;7.43;4.03;;;9.10;99.90;;;;;;5095955;28;20024;-81
2021/10/13 08:04:09;;;;;;;7.90;4.03;;;9.00;99.90;;;;;;5094735;28;20024;-81
2021/10/13 08:06:35;;;;;;;7.57;3.60;;;9.10;99.90;;;;;;5094722;28;20036;-82
2021/10/13 08:09:00;;;;;;;8.13;3.70;;;9.10;99.90;;;;;;5094440;28;20028;-81
2021/10/13 08:11:26;;;;;;;6.10;3.75;;;9.10;99.90;;;;;;5104093;28;20032;-80
2021/10/13 08:13:52;;;;;;;8.18;3.90;;;9.20;99.90;;;;;;5094684;28;20130;-80
2021/10/13 08:16:18;;;;;;;10.07;4.57;;;9.20;99.90;;;;;;5100587;28;20115;-79
2021/10/13 08:18:44;;;;;;;10.35;4.85;;;9.20;99.90;;;;;;5095155;28;20465;-79
2021/10/13 08:21:10;;;;;;;11.75;4.78;;;9.30;99.90;;;;;;5097046;28;20024;-79
2021/10/13 08:23:36;;;;;;;11.52;4.85;;;9.30;99.90;;;;;;5094061;28;20051;-79
2021/10/13 08:26:02;;;;;;;8.63;4.68;;;9.30;99.90;;;;;;5093068;28;20059;-79
2021/10/13 08:28:29;;;;;;;10.85;4.90;;;9.40;99.90;;;;;;5093577;28;20032;-76
2021/10/13 08:30:55;;;;;;;8.63;3.97;;;9.50;99.90;;;;;;5133482;27;20020;-77
2021/10/13 08:33:22;;;;;;;8.15;3.88;;;9.60;99.90;;;;;;5087729;28;20032;-75
2021/10/13 08:35:47;;;;;;;7.95;3.83;;;9.70;99.60;;;;;;5103081;28;20028;-76
2021/10/13 08:38:13;;;;;;;9.68;3.42;;;9.70;99.60;;;;;;5098290;28;20090;-76
2021/10/13 08:40:40;;;;;;;11.07;4.18;;;9.70;99.60;;;;;;5094993;28;20073;-76
2021/10/13 08:43:07;;;;;;;10.40;4.20;;;9.80;99.60;;;;;;5098239;28;20298;-75
2021/10/13 08:45:34;;;;;;;8.68;3.55;;;9.70;99.70;;;;;;5102031;28;20031;-77
2021/10/13 08:48:02;;;;;;;11.05;3.63;;;9.80;99.60;;;;;;5091604;28;20087;-75
2021/10/13 08:50:29;;;;;;;8.43;3.80;;;9.80;99.70;;;;;;5107191;28;20026;-76
2021/10/13 08:53:06;;;;;;;7.32;3.35;;;9.90;99.10;;;;;;5093014;28;20032;-80
2021/10/13 09:04:27;;;;;;;6.78;2.83;;;9.90;97.90;;;;;;2766767;23;21305;-77
2021/10/13 09:07:01;;;;;;;7.18;2.72;;;10.00;97.50;;;;;;4980348;28;20145;-77
2021/10/13 09:09:27;;;;;;;6.10;3.08;;;10.10;97.50;;;;;;4987563;28;20026;-80
2021/10/13 09:11:52;;;;;;;8.95;3.33;;;10.10;97.70;;;;;;4994561;28;20105;-77
2021/10/13 09:14:20;;;;;;;9.55;3.13;;;10.10;97.60;;;;;;4993284;28;20053;-78
2021/10/13 09:17:00;;;;;;;10.30;4.03;;;10.20;97.60;;;;;;4980374;28;20050;-78
2021/10/13 09:19:36;;;;;;;10.45;3.58;;;10.20;97.40;;;;;;4994591;28;20046;-77
2021/10/13 09:22:07;;;;;;;7.80;3.78;;;10.30;97.50;;;;;;4990258;28;20035;-78
2021/10/13 09:24:40;;;;;;;9.43;3.38;;;10.30;97.50;;;;;;4979355;28;20114;-77
2021/10/13 09:27:18;;;;;;;8.02;3.63;;;10.50;98.20;;;;;;4986164;28;20038;-78
2021/10/13 09:29:44;;;;;;;7.65;3.35;;;10.50;97.30;;;;;;4994673;28;20696;-79
2021/10/13 09:32:10;;;;;;;6.63;3.05;;;10.50;96.90;;;;;;4984857;28;20085;-80
2021/10/13 09:34:43;;;;;;;7.47;3.22;;;10.60;97.00;;;;;;4985481;28;20026;-80
2021/10/13 09:37:09;;;;;;;8.40;3.03;;;10.60;96.70;;;;;;4978757;28;20081;-80
2021/10/13 09:39:37;;;;;;;10.32;2.83;;;10.60;96.80;;;;;;4977434;28;20038;-80
2021/10/13 09:42:12;;;;;;;9.65;2.90;;;10.70;96.30;;;;;;4977829;28;20109;-79
2021/10/13 09:44:40;;;;;;;5.97;2.90;;;10.70;95.60;;;;;;4990646;28;20033;-78
2021/10/13 09:47:11;;;;;;;7.88;2.83;;;10.70;95.60;;;;;;4993540;28;20045;-79
2021/10/13 09:49:45;;;;;;;7.70;2.90;;;10.70;95.90;;;;;;4992323;28;20042;-79
2021/10/13 09:52:13;;;;;;;10.57;2.97;;;10.80;95.70;;;;;;4987622;28;20035;-80
2021/10/13 09:54:41;;;;;;;7.53;2.75;;;10.90;95.60;;;;;;4984863;28;20030;-78
2021/10/13 09:57:25;;;;;;;10.73;2.42;;;10.80;95.60;;;;;;4984508;28;20037;-77
2021/10/13 10:00:12;;;;;;;6.97;3.03;;;10.90;95.40;;;;;;4985105;28;20093;-79
2021/10/13 10:02:47;;;;;;;7.13;2.83;;;10.80;95.80;;;;;;4989067;28;20030;-78
2021/10/13 10:05:16;;;;;;;6.80;3.05;;;10.80;95.70;;;;;;4975600;28;20066;-79
2021/10/13 10:07:45;;;;;;;6.70;3.13;;;10.90;96.00;;;;;;4985299;28;20037;-79
2021/10/13 10:10:16;;;;;;;5.97;2.75;;;10.90;96.00;;;;;;4992591;28;20333;-80
2021/10/13 10:13:02;;;;;;;7.25;2.88;;;11.10;96.30;;;;;;4975825;28;20085;-80
2021/10/13 10:15:42;;;;;;;7.80;3.10;;;11.10;95.80;;;;;;4973598;28;20365;-81
2021/10/13 10:18:31;;;;;;;7.15;3.25;;;11.20;95.90;;;;;;4986315;28;20030;-80
2021/10/13 10:21:23;;;;;;;5.28;2.58;;;11.20;95.70;;;;;;4985794;28;20054;-78
2021/10/13 10:24:24;;;;;;;6.93;3.15;;;11.20;96.20;;;;;;4993603;28;20025;-80
2021/10/13 10:26:50;;;;;;;5.47;2.95;;;11.30;95.90;;;;;;4991346;28;20464;-79
2021/10/13 10:29:16;;;;;;;10.27;3.20;;;11.30;96.20;;;;;;4982847;28;20161;-79
2021/10/13 10:31:54;;;;;;;7.07;2.80;;;11.30;95.70;;;;;;4983250;28;20472;-81
2021/10/13 10:34:23;;;;;;;4.82;2.97;;;11.30;95.90;;;;;;4991470;28;20019;-82
2021/10/13 10:36:48;;;;;;;6.20;3.50;;;11.30;95.60;;;;;;4993696;28;20113;-83
2021/10/13 10:39:19;;;;;;;6.70;2.75;;;11.30;95.30;;;;;;4999639;28;20125;-82
2021/10/13 10:41:55;;;;;;;6.85;2.90;;;11.30;95.50;;;;;;4992098;28;20026;-82
2021/10/13 10:44:29;;;;;;;5.00;2.55;;;11.40;95.60;;;;;;4988940;28;20034;-80
2021/10/13 10:47:07;;;;;;;4.90;2.47;;;11.40;94.90;;;;;;4999252;28;20029;-79
2021/10/13 10:49:52;;;;;;;4.88;2.70;;;11.50;95.00;;;;;;4990474;28;20069;-81
2021/10/13 10:52:24;;;;;;;3.70;2.10;;;11.50;94.90;;;;;;5009399;28;20018;-80
2021/10/13 10:54:51;;;;;;;6.10;2.58;;;11.50;94.40;;;;;;4982723;28;20038;-81
2021/10/13 10:57:31;;;;;;;6.20;2.72;;;11.60;94.40;;;;;;4992648;28;20029;-80
2021/10/13 10:59:58;;;;;;;7.28;2.78;;;11.60;94.80;;;;;;4979229;28;20026;-80
2021/10/13 11:02:24;;;;;;;9.30;2.60;;;11.60;94.70;;;;;;4984476;28;20038;-78
2021/10/13 11:05:22;;;;;;;5.40;2.50;;;11.40;95.00;;;;;;4994750;28;20085;-77
2021/10/13 11:07:49;;;;;;;11.30;2.42;;;11.40;95.30;;;;;;4967097;28;20039;-79
2021/10/13 11:10:22;;;;;;;6.00;2.45;;;11.40;95.30;;;;;;4979489;28;20041;-80
2021/10/13 11:12:48;;;;;;;5.90;2.03;;;11.40;94.90;;;;;;4987254;28;20022;-79
2021/10/13 11:15:38;;;;;;;3.92;1.50;;;11.50;95.10;;;;;;4992087;28;20084;-80
2021/10/13 11:18:17;;;;;;;4.47;2.10;;;11.60;95.20;;;;;;4968093;28;20093;-81
2021/10/13 11:20:45;;;;;;;5.70;2.22;;;11.80;94.90;;;;;;4992035;28;20033;-81
2021/10/13 11:23:11;;;;;;;6.50;2.38;;;12.00;94.70;;;;;;4985483;28;20577;-80
2021/10/13 11:25:39;;;;;;;7.10;2.50;;;12.20;94.80;;;;;;4986758;28;20030;-80
2021/10/13 11:28:14;;;;;;;7.88;2.30;;;12.30;93.90;;;;;;4977191;28;20042;-81
2021/10/13 11:30:48;;;;;;;5.30;1.92;;;12.40;93.20;;;;;;4986614;28;20080;-82
2021/10/13 11:33:16;;;;;;;5.60;2.03;;;12.30;93.60;;;;;;4992267;28;20034;-81
2021/10/13 11:35:44;;;;;;;5.82;1.90;;;12.30;93.10;;;;;;4977701;28;20029;-82
2021/10/13 11:38:14;;;;;;;4.30;2.08;;;12.20;93.20;;;;;;4981360;28;20463;-83
2021/10/13 11:40:40;;;;;;;4.50;1.95;;;12.20;93.40;;;;;;4989653;28;20034;-80
2021/10/13 11:43:08;;;;;;;4.88;1.80;;;12.20;92.90;;;;;;4987344;28;20031;-80
2021/10/13 11:45:34;;;;;;;4.15;1.75;;;12.00;93.40;;;;;;4987355;28;20059;-80
2021/10/13 11:48:00;;;;;;;4.95;2.13;;;12.00;93.90;;;;;;4984139;28;20113;-80
2021/10/13 11:50:30;;;;;;;4.50;1.85;;;11.90;94.90;;;;;;4991428;28;20050;-80
2021/10/13 11:52:58;;;;;;;5.60;1.80;;;11.80;94.90;;;;;;4991494;28;20483;-80
2021/10/13 11:55:29;;;;;;;6.80;2.10;;;11.70;95.10;;;;;;4984791;28;20031;-80
2021/10/13 11:58:06;;;;;;;6.03;1.73;;;11.70;95.70;;;;;;4978766;28;20026;-79
2021/10/13 12:00:32;;;;;;;2.88;1.50;;;11.70;96.40;;;;;;4987183;28;20035;-81
2021/10/13 12:03:02;;;;;;;2.75;1.38;;;11.70;96.10;;;;;;4991927;28;20471;-78
2021/10/13 12:05:36;;;;;;;5.15;1.40;;;11.60;95.80;;;;;;4991012;28;20051;-78
2021/10/13 12:08:07;;;;;;;1.70;0.95;;;11.60;96.20;;;;;;4982010;28;20042;-79
2021/10/13 12:10:43;;;;;;;2.33;1.00;;;11.50;95.50;;;;;;5000778;28;20045;-79
2021/10/13 12:13:13;;;;;;;2.15;0.70;;;11.40;94.50;;;;;;4985471;28;20466;-78
2021/10/13 12:15:45;;;;;;;2.40;0.80;;;11.50;93.60;;;;;;4971694;28;20034;-79
2021/10/13 12:18:13;;;;;;;6.00;1.00;;;11.40;95.70;;;;;;4983811;28;20479;-78
2021/10/13 12:20:38;;;;;;;2.92;1.00;;;11.30;97.00;;;;;;4975308;28;20031;-78
2021/10/13 12:23:19;;;;;;;1.83;0.82;;;11.30;96.60;;;;;;4987367;28;20558;-78
2021/10/13 12:25:45;;;;;;;7.30;1.00;;;11.30;96.40;;;;;;4979287;28;20058;-79
2021/10/13 12:28:19;;;;;;;1.45;0.88;;;11.30;96.50;;;;;;4982026;28;20443;-80
2021/10/13 12:30:47;;;;;;;2.17;0.88;;;11.40;96.20;;;;;;4989061;28;20026;-81
2021/10/13 12:33:15;;;;;;;1.75;1.05;;;11.40;96.20;;;;;;4986885;28;20033;-81
2021/10/13 12:35:43;;;;;;;1.63;0.90;;;11.40;96.30;;;;;;4988401;28;20026;-81
2021/10/13 12:38:19;;;;;;;2.03;1.13;;;11.40;95.90;;;;;;4983393;28;20433;-79
2021/10/13 12:41:00;;;;;;;3.42;1.02;;;11.50;95.80;;;;;;4981578;28;20049;-80
2021/10/13 12:43:26;;;;;;;0.90;0.65;;;11.60;95.60;;;;;;4983277;28;20045;-80
2021/10/13 12:45:52;;;;;;;1.63;0.80;;;11.70;94.90;;;;;;4991323;28;20030;-81
2021/10/13 12:48:21;;;;;;;2.42;0.70;;;11.80;94.40;;;;;;4993766;28;20062;-79
2021/10/13 12:51:12;;;;;;;3.08;0.80;;;11.80;94.80;;;;;;4992740;28;20057;-82
2021/10/13 12:53:39;;;;;;;3.65;1.08;;;12.00;95.20;;;;;;4985805;28;20029;-78
2021/10/13 12:56:06;;;;;;;2.08;0.90;;;12.10;95.20;;;;;;4983243;28;20035;-78
2021/10/13 12:58:32;;;;;;;2.25;1.13;;;12.20;94.90;;;;;;4975836;28;20039;-78
2021/10/13 13:00:57;;;;;;;1.42;0.85;;;12.20;94.20;;;;;;4983185;28;20027;-79
2021/10/13 13:03:23;;;;;;;2.28;0.90;;;12.30;94.50;;;;;;4978042;28;20550;-78
2021/10/13 13:05:54;;;;;;;3.30;0.70;;;12.20;94.80;;;;;;4975109;28;20046;-78
2021/10/13 13:08:21;;;;;;;2.17;0.80;;;12.20;94.90;;;;;;4988293;28;20097;-77
2021/10/13 13:10:46;;;;;;;1.95;0.60;;;12.30;94.00;;;;;;4980800;28;20034;-76